Time;durP1;ratioP1;P1;durP2;ratioP2;P2;SDS_P1;SDS_P2;PMS_P1;PMS_P2;Temp;Humidity;BMP_temperature;BMP_pressure;BME280_temperature;BME280_humidity;BME280_pressure;Samples;Min_cycle;Max_cycle;Signal;HPM_P1;HPM_P2
2022/03/01 00:00:24;;;;;;;0.40;0.40;;;;;;;23.40;11.06;101876.78;5053822;28;20325;-74
2022/03/01 00:02:50;;;;;;;0.30;0.30;;;;;;;23.42;11.05;101882.81;5053177;28;20021;-75
2022/03/01 00:05:15;;;;;;;0.20;0.20;;;;;;;23.40;10.99;101868.59;5053143;28;20471;-74
2022/03/01 00:07:41;;;;;;;0.22;0.22;;;;;;;23.43;11.03;101876.28;5053135;28;20028;-74
2022/03/01 00:10:07;;;;;;;0.20;0.20;;;;;;;23.43;10.98;101875.44;5052824;28;20364;-74
2022/03/01 00:12:32;;;;;;;0.30;0.30;;;;;;;23.42;11.03;101869.19;5052668;28;20033;-75
2022/03/01 00:14:57;;;;;;;0.30;0.30;;;;;;;23.41;11.00;101872.13;5055342;28;20029;-75
2022/03/01 00:17:23;;;;;;;0.40;0.40;;;;;;;23.40;11.02;101871.31;5056892;28;20021;-74
2022/03/01 00:19:48;;;;;;;0.30;0.30;;;;;;;23.39;10.81;101866.09;5056890;28;20387;-76
2022/03/01 00:22:14;;;;;;;0.40;0.40;;;;;;;23.36;10.74;101853.75;5056180;28;20446;-75
2022/03/01 00:24:39;;;;;;;0.60;0.30;;;;;;;23.39;10.94;101864.19;5056628;28;20025;-76
2022/03/01 00:27:05;;;;;;;0.40;0.40;;;;;;;23.38;10.74;101859.78;5056948;28;20035;-77
2022/03/01 00:29:30;;;;;;;0.30;0.30;;;;;;;23.36;10.81;101852.91;5056969;28;20028;-76
2022/03/01 00:31:55;;;;;;;0.25;0.25;;;;;;;23.38;10.77;101853.50;5038477;28;20048;-76
2022/03/01 00:34:21;;;;;;;0.30;0.30;;;;;;;23.36;11.00;101861.09;5056552;28;20028;-76
2022/03/01 00:36:46;;;;;;;0.30;0.30;;;;;;;23.37;10.87;101860.03;5056500;28;20056;-76
2022/03/01 00:39:12;;;;;;;0.20;0.20;;;;;;;23.36;10.87;101851.00;5056548;28;20356;-75
2022/03/01 00:41:37;;;;;;;0.40;0.40;;;;;;;23.38;11.00;101850.78;5056017;28;20426;-76
2022/03/01 00:44:03;;;;;;;0.30;0.30;;;;;;;23.36;10.86;101848.28;5056534;28;20056;-76
2022/03/01 00:46:28;;;;;;;0.30;0.30;;;;;;;23.38;10.94;101854.31;5056077;28;20347;-76
2022/03/01 00:48:54;;;;;;;0.30;0.30;;;;;;;23.36;11.00;101842.84;5056315;28;20048;-76
2022/03/01 00:51:19;;;;;;;0.20;0.20;;;;;;;23.36;11.01;101848.28;5038056;28;20032;-76
2022/03/01 00:53:45;;;;;;;0.38;0.38;;;;;;;23.37;11.04;101841.78;5056244;28;20048;-75
2022/03/01 00:56:10;;;;;;;0.20;0.20;;;;;;;23.36;10.92;101831.91;5055910;28;20017;-75
2022/03/01 00:58:36;;;;;;;0.30;0.30;;;;;;;23.35;10.78;101833.00;5056647;28;20025;-74
2022/03/01 01:01:01;;;;;;;0.30;0.30;;;;;;;23.35;10.94;101834.88;5056129;28;20364;-75
2022/03/01 01:03:26;;;;;;;0.30;0.30;;;;;;;23.36;10.99;101842.84;5055975;28;20017;-75
2022/03/01 01:05:52;;;;;;;0.30;0.30;;;;;;;23.37;11.03;101839.03;5056020;28;20025;-74
2022/03/01 01:08:17;;;;;;;0.25;0.25;;;;;;;23.35;10.73;101834.88;5055598;28;20107;-75
2022/03/01 01:10:42;;;;;;;0.30;0.30;;;;;;;23.31;11.00;101834.53;5055864;28;20025;-75
2022/03/01 01:13:08;;;;;;;0.63;0.30;;;;;;;23.32;10.85;101832.63;5055564;28;20053;-75
2022/03/01 01:15:33;;;;;;;0.30;0.30;;;;;;;23.33;10.83;101832.38;5038018;28;20021;-74
2022/03/01 01:17:59;;;;;;;0.32;0.32;;;;;;;23.33;10.94;101826.94;5037667;28;20056;-74
2022/03/01 01:20:24;;;;;;;0.30;0.30;;;;;;;23.34;10.89;101822.31;5055748;28;20094;-74
2022/03/01 01:22:49;;;;;;;0.30;0.30;;;;;;;23.33;11.08;101821.47;5055213;28;20055;-74
2022/03/01 01:25:17;;;;;;;0.30;0.30;;;;;;;23.33;11.07;101826.13;5055220;28;20044;-74
2022/03/01 01:27:44;;;;;;;0.30;0.30;;;;;;;23.29;10.97;101825.75;5037426;28;20036;-75
2022/03/01 01:30:14;;;;;;;0.20;0.20;;;;;;;23.31;10.90;101820.91;5055376;28;20025;-74
2022/03/01 01:32:40;;;;;;;0.20;0.20;;;;;;;23.31;11.07;101829.06;5055694;28;20025;-76
2022/03/01 01:35:07;;;;;;;0.20;0.20;;;;;;;23.32;10.75;101822.56;5055662;28;20474;-76
2022/03/01 01:37:32;;;;;;;0.40;0.40;;;;;;;23.31;11.13;101826.34;5055494;28;20036;-76
2022/03/01 01:39:58;;;;;;;0.30;0.30;;;;;;;23.28;10.84;101820.53;5055438;28;20021;-76
2022/03/01 01:42:23;;;;;;;0.30;0.30;;;;;;;23.28;10.88;101818.63;5055427;28;20112;-76
2022/03/01 01:44:49;;;;;;;0.40;0.40;;;;;;;23.34;10.71;101817.69;5055351;28;20467;-76
2022/03/01 01:47:14;;;;;;;3.10;0.50;;;;;;;23.31;10.92;101820.06;5056030;28;20098;-76
2022/03/01 01:49:39;;;;;;;0.30;0.30;;;;;;;23.28;10.85;101823.28;5055623;28;20493;-76
2022/03/01 01:52:05;;;;;;;0.38;0.38;;;;;;;23.28;10.85;101813.19;5055316;28;20459;-76
2022/03/01 01:54:31;;;;;;;0.28;0.28;;;;;;;23.31;10.82;101815.44;5055832;28;20084;-77
2022/03/01 01:56:56;;;;;;;0.30;0.30;;;;;;;23.31;10.56;101807.25;5054873;28;20353;-76
2022/03/01 01:59:21;;;;;;;0.20;0.20;;;;;;;23.28;10.63;101818.63;5020917;28;20025;-77
2022/03/01 02:01:50;;;;;;;0.28;0.28;;;;;;;23.29;10.64;101812.13;5055121;28;20033;-76
2022/03/01 02:04:15;;;;;;;0.20;0.20;;;;;;;23.31;10.92;101814.63;5054993;28;20029;-77
2022/03/01 02:06:51;;;;;;;0.40;0.40;;;;;;;23.28;10.89;101802.28;5055072;28;20051;-77
2022/03/01 02:09:16;;;;;;;0.20;0.20;;;;;;;23.31;10.70;101806.44;5054990;28;20025;-76
2022/03/01 02:11:42;;;;;;;0.30;0.30;;;;;;;23.29;10.90;101808.56;5054695;28;20490;-76
2022/03/01 02:14:07;;;;;;;0.28;0.28;;;;;;;23.27;10.89;101799.78;5054923;28;20043;-76
2022/03/01 02:16:32;;;;;;;0.20;0.20;;;;;;;23.22;10.82;101798.59;5054523;28;20094;-76
2022/03/01 02:18:58;;;;;;;0.30;0.30;;;;;;;23.24;10.89;101806.56;5054929;28;20025;-75
2022/03/01 02:21:23;;;;;;;0.40;0.40;;;;;;;23.22;11.02;101809.50;5016759;28;20025;-76
2022/03/01 02:23:48;;;;;;;0.20;0.20;;;;;;;23.24;11.06;101806.56;5034760;28;20029;-76
2022/03/01 02:26:14;;;;;;;0.20;0.20;;;;;;;23.24;11.04;101810.09;5034393;28;20466;-76
2022/03/01 02:28:39;;;;;;;1.00;0.40;;;;;;;23.26;10.99;101809.88;5034607;28;20064;-74
2022/03/01 02:31:05;;;;;;;0.30;0.30;;;;;;;23.25;11.25;101808.22;5034600;28;20038;-74
2022/03/01 02:33:30;;;;;;;0.20;0.20;;;;;;;23.25;11.08;101809.03;5033988;28;20384;-75
2022/03/01 02:35:55;;;;;;;0.20;0.20;;;;;;;23.24;11.14;101806.56;5034475;28;20037;-75
2022/03/01 02:38:21;;;;;;;0.30;0.30;;;;;;;23.24;11.36;101799.19;5034256;28;20076;-75
2022/03/01 02:40:46;;;;;;;0.20;0.20;;;;;;;23.24;11.26;101795.66;5016218;28;20025;-75
2022/03/01 02:43:11;;;;;;;0.30;0.30;;;;;;;23.23;11.35;101794.81;5033232;28;20049;-74
2022/03/01 02:45:37;;;;;;;0.30;0.30;;;;;;;23.25;11.14;101792.69;5034195;28;20076;-74
2022/03/01 02:48:02;;;;;;;0.35;0.35;;;;;;;23.22;11.23;101782.25;5016747;28;20025;-75
2022/03/01 02:50:28;;;;;;;0.30;0.30;;;;;;;23.21;11.21;101785.22;5037602;28;20029;-75
2022/03/01 02:52:53;;;;;;;0.47;0.35;;;;;;;23.22;11.22;101782.25;5039588;28;20041;-75
2022/03/01 02:55:19;;;;;;;0.30;0.30;;;;;;;23.25;11.22;101780.94;5038586;28;20030;-75
2022/03/01 02:57:44;;;;;;;0.20;0.20;;;;;;;23.21;11.09;101782.47;5039110;28;20025;-74
2022/03/01 03:00:10;;;;;;;0.30;0.30;;;;;;;23.21;11.25;101785.22;5039216;28;20018;-75
2022/03/01 03:02:35;;;;;;;0.30;0.30;;;;;;;23.20;11.29;101781.66;5038934;28;20024;-75
2022/03/01 03:05:01;;;;;;;0.20;0.20;;;;;;;23.23;11.24;101783.06;5039080;28;20368;-75
2022/03/01 03:07:26;;;;;;;0.38;0.38;;;;;;;23.21;11.17;101780.56;5039808;28;20025;-75
2022/03/01 03:09:52;;;;;;;0.30;0.30;;;;;;;23.22;11.26;101778.69;5040912;28;20464;-75
2022/03/01 03:12:18;;;;;;;0.30;0.30;;;;;;;23.23;11.18;101783.06;5041500;28;20037;-74
2022/03/01 03:14:44;;;;;;;0.20;0.20;;;;;;;23.21;11.42;101775.13;5042540;28;20415;-75
2022/03/01 03:17:12;;;;;;;0.30;0.25;;;;;;;23.22;11.37;101781.41;5042416;28;20056;-75
2022/03/01 03:19:38;;;;;;;0.20;0.20;;;;;;;23.24;11.24;101773.81;5042152;28;20420;-75
2022/03/01 03:22:03;;;;;;;0.20;0.20;;;;;;;23.20;11.11;101769.94;5053456;28;20102;-75
2022/03/01 03:24:29;;;;;;;0.40;0.40;;;;;;;23.20;11.28;101773.47;5060765;28;20030;-75
2022/03/01 03:26:55;;;;;;;0.30;0.30;;;;;;;23.19;11.16;101777.25;5055268;28;20106;-75
2022/03/01 03:29:21;;;;;;;0.40;0.40;;;;;;;23.20;11.29;101772.66;5054044;28;20025;-75
2022/03/01 03:31:46;;;;;;;0.30;0.30;;;;;;;23.18;11.20;101769.31;5053547;28;20033;-76
2022/03/01 03:34:13;;;;;;;0.20;0.20;;;;;;;23.20;11.26;101778.13;5054189;28;20032;-77
2022/03/01 03:36:40;;;;;;;0.32;0.32;;;;;;;23.19;11.31;101770.97;5053793;28;20028;-77
2022/03/01 03:39:08;;;;;;;0.30;0.30;;;;;;;23.19;11.02;101765.53;5053760;28;20025;-77
2022/03/01 03:41:33;;;;;;;0.30;0.30;;;;;;;23.19;11.10;101757.34;5036189;28;20043;-76
2022/03/01 03:43:59;;;;;;;0.20;0.20;;;;;;;23.20;11.12;101754.38;5053801;28;20041;-76
2022/03/01 03:46:25;;;;;;;0.30;0.30;;;;;;;23.21;11.04;101757.94;5053472;28;20436;-77
2022/03/01 03:48:52;;;;;;;0.20;0.20;;;;;;;23.23;10.99;101753.06;5053690;28;20025;-76
2022/03/01 03:51:17;;;;;;;0.30;0.30;;;;;;;23.20;11.03;101751.66;5057686;28;20104;-76
2022/03/01 03:53:43;;;;;;;0.25;0.25;;;;;;;23.18;11.18;101748.34;5057635;28;20017;-76
2022/03/01 03:56:08;;;;;;;0.30;0.30;;;;;;;23.19;11.03;101740.97;5058295;28;20029;-76
2022/03/01 03:58:34;;;;;;;0.30;0.30;;;;;;;23.19;11.03;101750.00;5057018;28;20021;-76
2022/03/01 04:00:59;;;;;;;0.30;0.30;;;;;;;23.17;11.04;101740.41;5057251;28;20025;-77
2022/03/01 04:03:24;;;;;;;0.20;0.20;;;;;;;23.17;11.09;101745.84;5057230;28;20028;-75
2022/03/01 04:05:50;;;;;;;0.20;0.20;;;;;;;23.17;11.13;101745.84;5057018;28;20472;-75
2022/03/01 04:08:16;;;;;;;0.20;0.20;;;;;;;23.16;11.06;101746.91;5056820;28;20040;-74
2022/03/01 04:10:43;;;;;;;0.30;0.30;;;;;;;23.19;10.75;101747.25;5039363;28;20111;-74
2022/03/01 04:13:08;;;;;;;0.20;0.20;;;;;;;23.19;10.85;101754.63;5039342;28;20025;-73
2022/03/01 04:15:34;;;;;;;0.20;0.20;;;;;;;23.21;10.86;101747.03;5056738;28;20025;-74
2022/03/01 04:17:59;;;;;;;0.30;0.30;;;;;;;23.22;10.88;101737.78;5056627;28;20052;-74
2022/03/01 04:20:25;;;;;;;0.20;0.20;;;;;;;23.25;10.91;101732.69;5056999;28;20098;-74
2022/03/01 04:22:50;;;;;;;0.20;0.20;;;;;;;23.28;11.02;101728.63;5056181;28;20052;-73
2022/03/01 04:25:15;;;;;;;0.40;0.40;;;;;;;23.29;10.97;101730.28;5056765;28;20033;-73
2022/03/01 04:27:41;;;;;;;0.32;0.32;;;;;;;23.31;10.95;101719.16;5056861;28;20106;-73
2022/03/01 04:30:07;;;;;;;0.22;0.22;;;;;;;23.31;10.94;101719.16;5056711;28;20028;-75
2022/03/01 04:32:34;;;;;;;0.35;0.30;;;;;;;23.34;11.01;101719.50;5056386;28;20032;-74
2022/03/01 04:35:00;;;;;;;0.30;0.30;;;;;;;23.38;10.81;101719.84;5057106;28;20070;-74
2022/03/01 04:37:26;;;;;;;0.40;0.35;;;;;;;23.40;10.86;101717.69;5056334;28;20037;-74
2022/03/01 04:39:51;;;;;;;0.40;0.30;;;;;;;23.43;11.03;101711.75;5056235;28;20029;-75
2022/03/01 04:42:16;;;;;;;0.30;0.30;;;;;;;23.43;11.07;101715.31;5056971;28;20025;-74
2022/03/01 04:44:42;;;;;;;0.32;0.32;;;;;;;23.47;10.88;101706.66;5056470;28;20044;-74
2022/03/01 04:47:10;;;;;;;0.20;0.20;;;;;;;23.49;10.89;101709.97;5056345;28;20357;-74
2022/03/01 04:49:36;;;;;;;0.20;0.20;;;;;;;23.53;10.92;101705.69;5038649;28;20044;-74
2022/03/01 04:52:01;;;;;;;0.20;0.20;;;;;;;23.54;11.04;101704.59;5056710;28;20041;-74
2022/03/01 04:54:27;;;;;;;0.20;0.20;;;;;;;23.53;11.00;101701.06;5055973;28;20360;-74
2022/03/01 04:56:52;;;;;;;0.30;0.30;;;;;;;23.58;10.88;101703.88;5055875;28;20022;-74
2022/03/01 04:59:17;;;;;;;0.30;0.30;;;;;;;23.61;10.91;101708.88;5056156;28;20032;-74
2022/03/01 05:01:43;;;;;;;0.30;0.30;;;;;;;23.62;10.81;101704.22;5055426;28;20083;-75
2022/03/01 05:04:08;;;;;;;0.20;0.20;;;;;;;23.65;10.56;101697.47;5038165;28;20024;-74
2022/03/01 05:06:34;;;;;;;0.20;0.20;;;;;;;23.65;10.77;101703.75;5055919;28;20029;-74
2022/03/01 05:08:59;;;;;;;0.30;0.30;;;;;;;23.68;10.85;101702.41;5055709;28;20075;-73
2022/03/01 05:11:24;;;;;;;0.30;0.30;;;;;;;23.68;10.86;101702.41;5055828;28;20041;-74
2022/03/01 05:13:51;;;;;;;0.20;0.20;;;;;;;23.73;10.68;101706.09;5055661;28;20029;-73
2022/03/01 05:16:17;;;;;;;0.20;0.20;;;;;;;23.73;10.71;101706.09;5055378;28;20104;-74
2022/03/01 05:18:42;;;;;;;0.30;0.30;;;;;;;23.75;10.64;101701.22;5055255;28;20103;-74
2022/03/01 05:21:07;;;;;;;0.28;0.28;;;;;;;23.75;10.50;101703.09;5055489;28;20033;-74
2022/03/01 05:23:34;;;;;;;0.28;0.28;;;;;;;23.76;10.55;101700.13;5055076;28;20115;-73
2022/03/01 05:26:00;;;;;;;0.30;0.30;;;;;;;23.76;10.83;101704.75;5055496;28;20027;-74
2022/03/01 05:28:25;;;;;;;0.20;0.20;;;;;;;23.77;10.74;101704.53;5055507;28;20029;-74
2022/03/01 05:30:51;;;;;;;0.20;0.20;;;;;;;23.79;10.56;101699.63;5055713;28;20032;-73
2022/03/01 05:33:16;;;;;;;0.38;0.32;;;;;;;23.78;10.67;101702.63;5055894;28;20339;-74
2022/03/01 05:35:42;;;;;;;0.32;0.32;;;;;;;23.83;10.49;101708.19;5037471;28;20379;-74
2022/03/01 05:38:09;;;;;;;0.20;0.20;;;;;;;23.84;10.41;101712.59;5055084;28;20386;-74
2022/03/01 05:40:35;;;;;;;0.20;0.20;;;;;;;23.85;10.84;101707.97;5055191;28;20036;-73
2022/03/01 05:43:00;;;;;;;0.30;0.28;;;;;;;23.83;10.57;101705.47;5055143;28;20025;-73
2022/03/01 05:45:26;;;;;;;0.20;0.20;;;;;;;23.85;10.56;101707.97;5054853;28;20048;-74
2022/03/01 05:47:51;;;;;;;0.30;0.28;;;;;;;23.85;10.54;101703.31;5055151;28;20490;-73
2022/03/01 05:50:17;;;;;;;0.30;0.30;;;;;;;23.87;10.57;101700.34;5037059;28;20100;-74
2022/03/01 05:52:42;;;;;;;0.20;0.20;;;;;;;23.88;10.71;101704.75;5036906;28;20088;-73
2022/03/01 05:55:08;;;;;;;0.20;0.20;;;;;;;23.88;10.77;101707.47;5055500;28;20047;-73
2022/03/01 05:57:34;;;;;;;0.20;0.20;;;;;;;23.90;10.68;101713.50;5054912;28;20049;-73
2022/03/01 05:59:59;;;;;;;0.22;0.22;;;;;;;23.92;10.61;101714.94;5054754;28;20490;-73
2022/03/01 06:02:25;;;;;;;0.30;0.30;;;;;;;23.92;10.75;101720.41;5054820;28;20086;-74
2022/03/01 06:04:51;;;;;;;0.22;0.22;;;;;;;23.90;10.73;101708.06;5054977;28;20021;-74
2022/03/01 06:07:16;;;;;;;0.43;0.30;;;;;;;23.91;10.73;101709.72;5054680;28;20498;-74
2022/03/01 06:09:41;;;;;;;0.30;0.30;;;;;;;23.94;11.07;101704.59;5036761;28;20047;-73
2022/03/01 06:12:07;;;;;;;0.25;0.25;;;;;;;23.97;10.89;101703.25;5053927;28;20033;-74
2022/03/01 06:14:35;;;;;;;0.20;0.20;;;;;;;23.98;10.99;101702.19;5054766;28;20017;-73
2022/03/01 06:17:01;;;;;;;0.20;0.20;;;;;;;23.98;11.25;101707.66;5054014;28;20443;-73
2022/03/01 06:19:26;;;;;;;0.47;0.43;;;;;;;23.97;11.12;101703.25;5054552;28;20036;-73
2022/03/01 06:21:52;;;;;;;0.25;0.25;;;;;;;23.97;11.08;101697.81;5054370;28;20049;-74
2022/03/01 06:24:17;;;;;;;0.20;0.20;;;;;;;23.98;11.15;101688.56;5054279;28;20032;-74
2022/03/01 06:26:43;;;;;;;0.20;0.20;;;;;;;24.01;11.33;101690.78;5053825;28;20486;-73
2022/03/01 06:29:08;;;;;;;0.20;0.20;;;;;;;24.05;11.44;101691.13;5054535;28;20033;-74
2022/03/01 06:31:34;;;;;;;0.40;0.40;;;;;;;24.05;11.47;101694.69;5036551;28;20456;-74
2022/03/01 06:33:59;;;;;;;0.38;0.30;;;;;;;24.08;11.44;101693.38;5054077;28;20036;-73
2022/03/01 06:36:25;;;;;;;0.52;0.30;;;;;;;24.08;11.47;101680.53;5054058;28;20455;-73
2022/03/01 06:38:50;;;;;;;1.52;0.50;;;;;;;24.08;11.38;101686.00;5054108;28;20091;-74
2022/03/01 06:41:15;;;;;;;0.93;0.43;;;;;;;24.09;11.38;101686.81;5053851;28;20025;-75
2022/03/01 06:43:41;;;;;;;0.68;0.40;;;;;;;24.10;11.43;101689.31;5054079;28;20075;-74
2022/03/01 06:46:07;;;;;;;0.30;0.30;;;;;;;24.14;11.51;101684.16;5053745;28;20383;-74
2022/03/01 06:48:32;;;;;;;0.60;0.50;;;;;;;24.18;11.84;101674.41;5053939;28;20159;-74
2022/03/01 06:50:58;;;;;;;1.52;0.40;;;;;;;24.16;11.72;101682.88;5053879;28;20414;-74
2022/03/01 06:53:23;;;;;;;0.40;0.30;;;;;;;24.21;11.99;101682.09;5054065;28;20025;-74
2022/03/01 06:55:49;;;;;;;0.50;0.35;;;;;;;24.21;11.96;101681.28;5053810;28;20017;-73
2022/03/01 06:58:14;;;;;;;0.50;0.43;;;;;;;24.18;12.15;101675.25;5054090;28;20368;-74
2022/03/01 07:00:39;;;;;;;0.40;0.40;;;;;;;24.24;11.94;101667.13;5053289;28;20387;-74
2022/03/01 07:03:08;;;;;;;1.65;0.40;;;;;;;24.27;12.00;101677.56;5053514;28;20120;-77
2022/03/01 07:05:33;;;;;;;0.95;0.40;;;;;;;24.25;12.49;101672.34;5036156;28;20025;-76
2022/03/01 07:07:58;;;;;;;0.57;0.50;;;;;;;24.33;12.26;101671.09;5053478;28;20044;-76
2022/03/01 07:10:24;;;;;;;1.45;0.82;;;;;;;24.35;12.04;101666.22;5052958;28;20357;-76
2022/03/01 07:12:50;;;;;;;2.08;1.20;;;;;;;24.37;12.26;101673.09;5053536;28;20024;-76
2022/03/01 07:15:16;;;;;;;3.50;2.20;;;;;;;24.38;12.34;101663.00;5054164;28;20057;-77
2022/03/01 07:17:43;;;;;;;4.18;2.25;;;;;;;24.35;12.45;101663.47;5035890;28;20168;-75
2022/03/01 07:20:09;;;;;;;5.20;2.55;;;;;;;24.44;12.51;101662.00;5053418;28;20097;-75
2022/03/01 07:22:37;;;;;;;4.40;2.97;;;;;;;24.45;12.39;101660.91;5053117;28;20049;-76
2022/03/01 07:25:02;;;;;;;5.65;3.17;;;;;;;24.48;12.44;101665.06;5033499;28;20029;-76
2022/03/01 07:27:28;;;;;;;2.75;2.20;;;;;;;24.46;12.49;101665.31;5054671;28;20029;-77
2022/03/01 07:29:54;;;;;;;2.95;2.03;;;;;;;24.48;12.39;101663.16;5035958;28;20586;-74
2022/03/01 07:32:19;;;;;;;8.98;3.53;;;;;;;24.49;12.62;101664.81;5053154;28;20090;-76
2022/03/01 07:34:44;;;;;;;7.95;3.35;;;;;;;24.49;12.90;101656.63;5053316;28;20040;-76
2022/03/01 07:37:10;;;;;;;6.65;3.17;;;;;;;24.50;12.60;101655.53;5053841;28;20029;-76
2022/03/01 07:42:48;;;;;;;6.60;2.80;;;;;;;24.54;12.74;101667.66;5041937;28;20119;-76
2022/03/01 07:45:14;;;;;;;3.95;1.77;;;;;;;24.55;12.79;101658.34;5035280;28;20024;-75
2022/03/01 07:47:39;;;;;;;4.70;2.05;;;;;;;24.58;12.76;101656.19;5053349;28;20021;-75
2022/03/01 07:50:08;;;;;;;4.38;2.08;;;;;;;24.60;12.87;101652.16;5053098;28;20036;-76
2022/03/01 07:52:33;;;;;;;3.28;1.58;;;;;;;24.60;12.74;101659.53;5053164;28;20051;-77
2022/03/01 07:55:02;;;;;;;2.22;1.38;;;;;;;24.61;12.92;101645.63;5053327;28;20461;-77
2022/03/01 07:57:28;;;;;;;2.92;1.50;;;;;;;24.58;12.85;101645.25;5054269;28;20025;-76
2022/03/01 07:59:53;;;;;;;7.50;2.53;;;;;;;24.69;13.16;101658.00;5053028;28;20375;-77
2022/03/01 08:02:18;;;;;;;8.63;3.65;;;;;;;24.68;13.19;101662.66;5053492;28;20029;-76
2022/03/01 08:04:44;;;;;;;10.18;4.55;;;;;;;24.73;13.16;101654.53;5052940;28;20370;-76
2022/03/01 08:07:10;;;;;;;11.48;4.55;;;;;;;24.75;13.03;101651.56;5052958;28;20025;-77
2022/03/01 08:09:36;;;;;;;8.18;4.03;;;;;;;24.78;13.19;101648.28;5052853;28;20033;-75
2022/03/01 08:12:02;;;;;;;8.45;3.60;;;;;;;24.81;13.33;101641.50;5053144;28;20036;-77
2022/03/01 08:14:30;;;;;;;6.93;3.30;;;;;;;24.78;13.30;101645.56;5053311;28;20057;-76
2022/03/01 08:16:55;;;;;;;8.02;3.45;;;;;;;24.81;12.94;101639.59;5052988;28;20488;-75
2022/03/01 08:19:22;;;;;;;4.72;2.55;;;;;;;24.80;13.23;101646.16;5053077;28;20033;-76
2022/03/01 08:21:49;;;;;;;3.50;2.38;;;;;;;24.83;13.33;101636.59;5052680;28;20053;-75
2022/03/01 08:24:15;;;;;;;4.60;2.30;;;;;;;24.85;13.37;101635.28;5053306;28;20439;-75
2022/03/01 08:26:40;;;;;;;2.70;1.92;;;;;;;24.86;13.21;101631.47;5052767;28;20487;-72
2022/03/01 08:29:07;;;;;;;5.20;2.10;;;;;;;24.90;13.34;101629.84;5034923;28;20029;-74
2022/03/01 08:31:32;;;;;;;4.97;2.33;;;;;;;24.91;13.42;101628.78;5052854;28;20029;-73
2022/03/01 08:33:59;;;;;;;6.13;2.30;;;;;;;24.92;13.42;101627.72;5052564;28;20033;-74
2022/03/01 08:36:25;;;;;;;4.18;2.35;;;;;;;24.88;13.62;101615.63;5055513;28;20055;-73
2022/03/01 08:38:51;;;;;;;3.85;2.25;;;;;;;24.95;13.13;101626.38;5056427;28;20108;-73
2022/03/01 08:41:16;;;;;;;5.50;2.58;;;;;;;24.95;13.20;101622.81;5056289;28;20036;-73
2022/03/01 08:43:41;;;;;;;6.18;3.00;;;;;;;24.98;13.24;101619.59;5056563;28;20387;-73
2022/03/01 08:46:11;;;;;;;4.70;2.63;;;;;;;25.02;13.38;101623.44;5021557;28;20033;-73
2022/03/01 08:48:36;;;;;;;4.20;2.85;;;;;;;25.01;13.24;101616.31;5056676;28;20021;-74
2022/03/01 08:51:02;;;;;;;6.03;2.22;;;;;;;24.93;13.35;101610.22;5056359;28;20040;-73
2022/03/01 08:53:27;;;;;;;4.53;2.38;;;;;;;25.02;13.32;101618.78;5056220;28;20017;-71
2022/03/01 08:55:53;;;;;;;6.28;2.45;;;;;;;25.04;13.45;101613.06;5056249;28;20463;-72
2022/03/01 08:58:19;;;;;;;6.10;2.70;;;;;;;25.05;13.51;101617.47;5055732;28;20412;-71
2022/03/01 09:00:45;;;;;;;4.22;2.17;;;;;;;25.06;13.29;101619.13;5056238;28;20028;-73
2022/03/01 09:03:11;;;;;;;2.90;1.95;;;;;;;25.09;13.64;101621.34;5056108;28;20031;-72
2022/03/01 09:05:36;;;;;;;4.20;2.13;;;;;;;25.10;13.35;101609.34;5056355;28;20025;-72
2022/03/01 09:08:01;;;;;;;1.90;1.50;;;;;;;25.14;13.62;101618.66;5056054;28;20103;-73
2022/03/01 09:10:27;;;;;;;2.83;1.23;;;;;;;25.07;13.46;101618.84;5055551;28;20370;-71
2022/03/01 09:12:53;;;;;;;1.58;1.40;;;;;;;25.10;13.55;101615.63;5037980;28;20029;-73
2022/03/01 09:15:19;;;;;;;3.03;1.58;;;;;;;25.11;13.56;101605.50;5055235;28;20029;-73
2022/03/01 09:17:45;;;;;;;3.08;1.33;;;;;;;25.15;13.32;101605.81;5055341;28;20029;-73
2022/03/01 09:20:10;;;;;;;1.88;1.30;;;;;;;25.16;13.23;101608.28;5056264;28;20078;-72
2022/03/01 09:22:36;;;;;;;2.28;1.20;;;;;;;25.18;13.17;101599.84;5055145;28;20045;-73
2022/03/01 09:25:04;;;;;;;1.90;0.95;;;;;;;25.20;13.33;101593.03;5055600;28;20071;-73
2022/03/01 09:27:29;;;;;;;1.48;1.10;;;;;;;25.18;13.03;101600.69;5055902;28;20033;-75
2022/03/01 09:29:55;;;;;;;0.93;0.73;;;;;;;25.21;13.11;101593.84;5057292;28;20035;-73
2022/03/01 09:32:20;;;;;;;1.88;0.80;;;;;;;25.22;13.13;101588.13;5056318;28;20435;-74
2022/03/01 09:34:45;;;;;;;2.40;1.02;;;;;;;25.22;12.96;101585.41;5055570;28;20033;-73
2022/03/01 09:37:11;;;;;;;1.15;0.85;;;;;;;25.23;13.02;101581.59;5055384;28;20029;-74
2022/03/01 09:39:36;;;;;;;1.73;0.80;;;;;;;25.25;12.89;101584.91;5055289;28;20103;-74
2022/03/01 09:42:02;;;;;;;0.85;0.70;;;;;;;25.24;12.84;101583.22;5054998;28;20324;-74
2022/03/01 09:44:27;;;;;;;1.00;0.60;;;;;;;25.26;12.59;101580.25;5055465;28;20040;-74
2022/03/01 09:46:53;;;;;;;0.80;0.60;;;;;;;25.27;12.74;101576.47;5035910;28;20041;-72
2022/03/01 09:49:19;;;;;;;0.77;0.60;;;;;;;25.28;12.58;101573.47;5055250;28;20045;-71
2022/03/01 09:51:44;;;;;;;1.13;0.60;;;;;;;25.26;12.38;101570.13;5054886;28;20021;-73
2022/03/01 09:54:09;;;;;;;0.50;0.50;;;;;;;25.29;12.68;101561.41;5037044;28;20029;-71
2022/03/01 09:56:36;;;;;;;0.50;0.50;;;;;;;25.34;12.68;101570.78;5054792;28;20021;-72
2022/03/01 09:59:02;;;;;;;0.77;0.70;;;;;;;25.27;12.71;101552.66;5054964;28;20025;-72
2022/03/01 10:01:27;;;;;;;1.00;0.75;;;;;;;25.33;12.41;101566.38;5037838;28;20519;-73
2022/03/01 10:03:53;;;;;;;0.55;0.55;;;;;;;25.34;12.15;101559.84;5054621;28;20029;-74
2022/03/01 10:06:21;;;;;;;0.60;0.60;;;;;;;25.32;12.06;101561.97;5054629;28;20029;-72
2022/03/01 10:08:54;;;;;;;0.50;0.50;;;;;;;25.28;11.99;101557.06;5055021;28;20025;-72
2022/03/01 10:11:19;;;;;;;0.80;0.60;;;;;;;25.36;11.97;101557.66;5054097;28;20025;-73
2022/03/01 10:13:44;;;;;;;0.55;0.55;;;;;;;25.37;12.21;101564.78;5054779;28;20132;-72
2022/03/01 10:16:17;;;;;;;0.90;0.73;;;;;;;25.31;12.17;101555.69;5054556;28;20106;-71
2022/03/01 10:18:55;;;;;;;0.85;0.70;;;;;;;25.35;12.13;101556.00;5054855;28;20051;-72
2022/03/01 10:21:23;;;;;;;0.82;0.63;;;;;;;25.33;12.31;101548.06;5054207;28;20021;-72
2022/03/01 10:23:50;;;;;;;0.60;0.60;;;;;;;25.34;12.38;101546.97;5034275;28;20045;-71
2022/03/01 10:26:20;;;;;;;0.50;0.50;;;;;;;25.35;12.22;101542.31;5034549;28;20029;-72
2022/03/01 10:28:46;;;;;;;0.50;0.50;;;;;;;25.37;12.34;101531.94;5033128;28;20038;-72
2022/03/01 10:31:20;;;;;;;1.13;0.52;;;;;;;25.38;12.34;101539.06;5033787;28;20383;-71
2022/03/01 10:33:52;;;;;;;3.22;0.60;;;;;;;25.36;12.03;101535.78;5034677;28;20044;-73
2022/03/01 10:36:21;;;;;;;0.93;0.70;;;;;;;25.36;12.13;101524.84;5034481;28;20103;-71
2022/03/01 10:39:07;;;;;;;0.60;0.40;;;;;;;25.41;12.13;101533.09;5033865;28;20444;-71
2022/03/01 10:41:34;;;;;;;0.68;0.60;;;;;;;25.38;12.02;101534.41;5034038;28;20087;-70
2022/03/01 10:43:59;;;;;;;1.15;0.50;;;;;;;25.38;12.21;101525.41;5016387;28;20526;-70
2022/03/01 10:46:28;;;;;;;1.55;0.65;;;;;;;25.37;11.99;101534.66;5033492;28;20076;-70
2022/03/01 10:49:08;;;;;;;1.80;0.80;;;;;;;25.41;11.98;101527.63;5017193;28;20108;-70
2022/03/01 10:51:35;;;;;;;1.05;0.70;;;;;;;25.43;12.04;101533.66;5034133;28;20026;-70
2022/03/01 10:54:00;;;;;;;0.60;0.60;;;;;;;25.46;12.20;101530.41;4999502;28;20129;-70
2022/03/01 10:56:34;;;;;;;1.02;0.88;;;;;;;25.47;11.98;101527.41;5033438;28;20361;-70
2022/03/01 10:58:59;;;;;;;0.93;0.68;;;;;;;25.46;11.64;101530.41;5032944;28;20025;-70
2022/03/01 11:01:27;;;;;;;1.63;0.90;;;;;;;25.45;11.74;101526.00;5032948;28;20025;-71
2022/03/01 11:03:53;;;;;;;2.38;1.30;;;;;;;25.45;12.00;101524.06;5032963;28;20067;-71
2022/03/01 11:06:18;;;;;;;2.05;1.52;;;;;;;25.43;11.83;101526.25;5033068;28;20029;-69
2022/03/01 11:08:44;;;;;;;1.95;1.20;;;;;;;25.42;11.70;101530.09;5015758;28;20032;-69
2022/03/01 11:11:10;;;;;;;2.70;1.63;;;;;;;25.45;11.78;101535.03;4999860;28;20033;-69
2022/03/01 11:13:39;;;;;;;2.67;1.60;;;;;;;25.45;11.66;101534.22;5033289;28;20033;-71
2022/03/01 11:16:25;;;;;;;1.83;1.20;;;;;;;25.42;11.70;101531.97;5033392;28;20041;-69
2022/03/01 11:19:05;;;;;;;2.17;1.60;;;;;;;25.41;11.60;101533.09;5015072;28;20515;-69
2022/03/01 11:21:31;;;;;;;2.72;1.42;;;;;;;25.43;11.78;101530.91;5032566;28;20033;-70